createdAt,value
2022-09-25T00:00:05.480Z,23.45
2022-09-25T00:02:36.496Z,22.25
2022-09-25T00:05:08.126Z,22.40
2022-09-25T00:07:39.518Z,23.55
2022-09-25T00:10:11.099Z,20.60
2022-09-25T00:12:42.570Z,21.05
2022-09-25T00:15:16.277Z,24.42
2022-09-25T00:17:48.459Z,22.35
2022-09-25T00:20:17.311Z,23.65
2022-09-25T00:22:48.401Z,24.00
2022-09-25T00:25:20.504Z,20.90
2022-09-25T00:27:56.035Z,21.48
2022-09-25T00:30:30.237Z,22.38
2022-09-25T00:33:02.461Z,21.50
2022-09-25T00:35:33.425Z,22.20
2022-09-25T00:38:04.473Z,23.00
2022-09-25T00:40:35.415Z,23.30
2022-09-25T00:43:06.407Z,26.00
2022-09-25T00:45:40.037Z,25.48
2022-09-25T00:48:12.781Z,25.45
2022-09-25T00:50:49.610Z,25.37
2022-09-25T00:53:21.642Z,26.37
2022-09-25T00:55:53.360Z,26.35
2022-09-25T00:58:25.957Z,24.70
2022-09-25T01:01:00.315Z,27.58
2022-09-25T01:03:31.389Z,26.92
2022-09-25T01:06:02.366Z,25.15
2022-09-25T01:08:36.432Z,22.77
2022-09-25T01:11:07.658Z,23.88
2022-09-25T01:13:39.420Z,25.70
2022-09-25T01:16:18.170Z,22.73
2022-09-25T01:19:01.095Z,22.67
2022-09-25T01:21:36.548Z,24.48
2022-09-25T01:24:29.522Z,25.75
2022-09-25T01:27:40.518Z,26.80
2022-09-25T01:30:18.437Z,24.10
2022-09-25T01:33:01.292Z,27.17
2022-09-25T01:35:42.876Z,28.73
2022-09-25T01:38:16.391Z,24.13
2022-09-25T01:40:51.184Z,26.88
2022-09-25T01:43:23.159Z,20.23
2022-09-25T01:45:59.255Z,19.85
2022-09-25T01:48:31.354Z,20.58
2022-09-25T01:51:03.304Z,24.35
2022-09-25T01:53:37.069Z,21.33
2022-09-25T01:56:10.973Z,20.23
2022-09-25T01:58:43.844Z,22.87
2022-09-25T02:01:22.471Z,19.17
2022-09-25T02:03:59.093Z,22.48
2022-09-25T02:06:30.411Z,24.42
2022-09-25T02:09:04.289Z,26.77
2022-09-25T02:11:40.024Z,25.10
2022-09-25T02:14:13.892Z,19.87
2022-09-25T02:16:47.972Z,20.45
2022-09-25T02:19:32.886Z,25.23
2022-09-25T02:22:08.043Z,21.70
2022-09-25T02:24:42.728Z,22.70
2022-09-25T02:27:15.798Z,24.83
2022-09-25T02:29:47.410Z,23.80
2022-09-25T02:32:22.659Z,18.20
2022-09-25T02:34:53.357Z,19.60
2022-09-25T02:37:24.382Z,23.35
2022-09-25T02:39:58.210Z,24.07
2022-09-25T02:42:35.063Z,19.90
2022-09-25T02:45:19.435Z,19.87
2022-09-25T02:48:00.322Z,20.90
2022-09-25T02:50:33.943Z,19.77
2022-09-25T02:53:09.643Z,20.58
2022-09-25T02:55:44.147Z,25.90
2022-09-25T02:58:17.059Z,21.38
2022-09-25T03:00:50.668Z,20.63
2022-09-25T03:03:25.524Z,22.63
2022-09-25T03:05:58.664Z,24.35
2022-09-25T03:08:41.989Z,23.52
2022-09-25T03:11:15.391Z,22.17
2022-09-25T03:13:46.700Z,23.30
2022-09-25T03:16:20.515Z,17.88
2022-09-25T03:18:54.518Z,16.75
2022-09-25T03:21:28.388Z,25.50
2022-09-25T03:23:59.902Z,23.03
2022-09-25T03:26:31.572Z,20.02
2022-09-25T03:29:06.327Z,23.87
2022-09-25T03:31:42.367Z,23.50
2022-09-25T03:34:17.109Z,23.67
2022-09-25T03:36:50.452Z,24.80
2022-09-25T03:39:22.455Z,21.23
2022-09-25T03:41:54.438Z,23.40
2022-09-25T03:44:25.431Z,25.45
2022-09-25T03:46:56.475Z,20.48
2022-09-25T03:49:30.172Z,17.27
2022-09-25T03:52:02.365Z,16.13
2022-09-25T03:54:33.445Z,17.70
2022-09-25T03:57:04.441Z,19.13
2022-09-25T03:59:35.918Z,17.70
2022-09-25T04:02:07.431Z,17.05
2022-09-25T04:04:41.066Z,20.35
2022-09-25T04:07:12.449Z,22.88
2022-09-25T04:09:46.524Z,22.70
2022-09-25T04:12:21.392Z,20.63
2022-09-25T04:14:54.117Z,23.90
2022-09-25T04:17:26.541Z,19.30
2022-09-25T04:20:00.097Z,23.40
2022-09-25T04:22:31.408Z,23.53
2022-09-25T04:25:05.504Z,25.03
2022-09-25T04:27:36.878Z,21.90
2022-09-25T04:30:09.592Z,18.63
2022-09-25T04:32:52.819Z,25.80
2022-09-25T04:35:27.600Z,19.27
2022-09-25T04:37:58.420Z,18.85
2022-09-25T04:40:29.491Z,20.77
2022-09-25T04:43:00.526Z,18.55
2022-09-25T04:45:35.577Z,21.15
2022-09-25T04:48:06.644Z,15.88
2022-09-25T04:50:40.595Z,13.85
2022-09-25T04:53:16.591Z,15.40
2022-09-25T04:55:48.364Z,22.23
2022-09-25T04:58:20.765Z,20.67
2022-09-25T05:00:54.962Z,17.60
2022-09-25T05:03:26.624Z,20.95
2022-09-25T05:06:00.192Z,23.83
2022-09-25T05:08:33.232Z,25.97
2022-09-25T05:11:04.458Z,30.05
2022-09-25T05:13:38.502Z,25.15
2022-09-25T05:16:12.652Z,21.98
2022-09-25T05:18:43.920Z,21.45
2022-09-25T05:21:20.326Z,24.97
2022-09-25T05:23:53.298Z,24.08
2022-09-25T05:26:24.485Z,22.20
2022-09-25T05:28:58.449Z,20.00
2022-09-25T05:31:29.872Z,22.23
2022-09-25T05:34:03.561Z,21.27
2022-09-25T05:36:38.159Z,20.60
2022-09-25T05:39:14.358Z,17.70
2022-09-25T05:41:46.534Z,23.95
2022-09-25T05:44:17.608Z,21.58
2022-09-25T05:46:48.764Z,19.07
2022-09-25T05:49:23.442Z,18.90
2022-09-25T05:51:58.486Z,17.33
2022-09-25T05:54:30.992Z,18.15
2022-09-25T05:57:02.523Z,19.13
2022-09-25T05:59:34.431Z,17.02
2022-09-25T06:02:05.562Z,17.65
2022-09-25T06:04:37.185Z,18.25
2022-09-25T06:07:12.943Z,18.30
2022-09-25T06:09:44.439Z,18.67
2022-09-25T06:12:17.162Z,17.20
2022-09-25T06:14:49.878Z,17.33
2022-09-25T06:17:21.777Z,17.65
2022-09-25T06:19:52.739Z,18.20
2022-09-25T06:22:29.286Z,17.95
2022-09-25T06:25:00.423Z,16.52
2022-09-25T06:27:31.554Z,16.60
2022-09-25T06:30:06.069Z,18.10
2022-09-25T06:32:38.409Z,17.47
2022-09-25T06:35:11.598Z,16.77
2022-09-25T06:37:45.584Z,17.95
2022-09-25T06:40:19.974Z,16.50
2022-09-25T06:42:53.125Z,17.50
2022-09-25T06:45:27.067Z,17.63
2022-09-25T06:48:02.442Z,16.52
2022-09-25T06:50:36.192Z,17.08
2022-09-25T06:53:11.387Z,17.60
2022-09-25T06:55:44.353Z,15.40
2022-09-25T06:58:17.749Z,16.50
2022-09-25T07:00:51.959Z,16.90
2022-09-25T07:03:36.013Z,15.88
2022-09-25T07:06:10.986Z,16.90
2022-09-25T07:08:48.422Z,15.07
2022-09-25T07:11:20.521Z,17.40
2022-09-25T07:13:55.590Z,16.10
2022-09-25T07:16:27.751Z,15.60
2022-09-25T07:19:01.354Z,16.25
2022-09-25T07:21:33.804Z,17.05
2022-09-25T07:24:08.654Z,16.15
2022-09-25T07:26:43.431Z,14.90
2022-09-25T07:29:14.683Z,15.35
2022-09-25T07:31:46.797Z,14.83
2022-09-25T07:34:18.647Z,14.98
2022-09-25T07:36:53.070Z,14.57
2022-09-25T07:39:28.798Z,15.32
2022-09-25T07:42:04.072Z,14.83
2022-09-25T07:44:38.586Z,15.30
2022-09-25T07:47:15.297Z,12.60
2022-09-25T07:49:46.953Z,13.00
2022-09-25T07:52:17.299Z,13.40
2022-09-25T07:54:52.170Z,13.60
2022-09-25T07:57:25.322Z,11.40
2022-09-25T07:59:56.622Z,12.52
2022-09-25T08:02:31.441Z,11.18
2022-09-25T08:05:03.028Z,11.10
2022-09-25T08:07:36.210Z,10.50
2022-09-25T08:10:12.236Z,8.98
2022-09-25T08:12:44.745Z,9.95
2022-09-25T08:15:19.594Z,9.43
2022-09-25T08:17:50.682Z,9.20
2022-09-25T08:20:21.810Z,9.13
2022-09-25T08:22:57.620Z,8.77
2022-09-25T08:28:07.914Z,7.40
2022-09-25T08:30:39.830Z,8.95
2022-09-25T08:33:15.741Z,7.90
2022-09-25T08:35:47.886Z,8.50
2022-09-25T08:38:19.801Z,7.93
2022-09-25T08:40:56.552Z,8.15
2022-09-25T08:43:30.832Z,8.77
2022-09-25T08:46:15.525Z,8.83
2022-09-25T08:49:06.483Z,8.83
2022-09-25T08:51:40.038Z,9.18
2022-09-25T08:54:13.765Z,7.78
2022-09-25T08:56:48.865Z,7.80
2022-09-25T08:59:26.391Z,7.40
2022-09-25T09:02:00.428Z,7.57
2022-09-25T09:04:34.539Z,9.35
2022-09-25T09:07:26.477Z,7.95
2022-09-25T09:10:06.509Z,8.82
2022-09-25T09:12:41.885Z,8.60
2022-09-25T09:15:25.116Z,7.90
2022-09-25T09:17:57.617Z,14.35
2022-09-25T09:20:34.586Z,11.15
2022-09-25T09:23:06.956Z,6.93
2022-09-25T09:25:41.358Z,6.70
2022-09-25T09:28:34.441Z,5.75
2022-09-25T09:31:11.342Z,5.75
2022-09-25T09:33:48.456Z,6.00
2022-09-25T09:36:30.272Z,6.22
2022-09-25T09:39:07.041Z,5.32
2022-09-25T09:41:46.112Z,5.10
2022-09-25T09:44:31.226Z,4.60
2022-09-25T09:47:06.528Z,4.40
2022-09-25T09:49:40.998Z,4.70
2022-09-25T09:52:14.799Z,4.68
2022-09-25T09:54:51.377Z,4.40
2022-09-25T09:57:25.283Z,4.80
2022-09-25T10:00:04.960Z,4.55
2022-09-25T10:02:47.120Z,4.32
2022-09-25T10:05:21.375Z,5.10
2022-09-25T10:07:53.681Z,5.25
2022-09-25T10:10:31.732Z,4.93
2022-09-25T10:13:06.857Z,5.10
2022-09-25T10:15:44.037Z,5.10
2022-09-25T10:18:16.886Z,5.75
2022-09-25T10:20:50.033Z,5.50
2022-09-25T10:23:34.293Z,4.80
2022-09-25T10:26:07.368Z,5.53
2022-09-25T10:28:38.937Z,5.00
2022-09-25T10:31:14.035Z,4.80
2022-09-25T10:33:45.618Z,5.00
2022-09-25T10:36:16.954Z,5.30
2022-09-25T10:38:55.260Z,5.10
2022-09-25T10:41:33.127Z,4.63
2022-09-25T10:44:05.644Z,4.20
2022-09-25T10:46:52.062Z,4.60
2022-09-25T10:49:37.726Z,4.00
2022-09-25T10:52:10.099Z,4.15
2022-09-25T10:54:45.294Z,4.50
2022-09-25T10:57:20.008Z,4.15
2022-09-25T10:59:53.088Z,3.65
2022-09-25T11:02:33.637Z,3.67
2022-09-25T11:05:04.240Z,4.05
2022-09-25T11:07:35.865Z,3.38
2022-09-25T11:10:08.397Z,3.22
2022-09-25T11:12:39.794Z,3.25
2022-09-25T11:15:19.794Z,3.33
2022-09-25T11:17:54.407Z,3.70
2022-09-25T11:20:32.392Z,3.40
2022-09-25T11:23:15.258Z,3.22
2022-09-25T11:25:49.577Z,2.95
2022-09-25T11:28:24.670Z,3.00
2022-09-25T11:30:58.493Z,3.20
2022-09-25T11:33:36.841Z,3.60
2022-09-25T11:36:10.244Z,3.05
2022-09-25T11:38:57.098Z,3.30
2022-09-25T11:41:32.862Z,3.40
2022-09-25T11:44:16.210Z,3.20
2022-09-25T11:46:52.139Z,3.03
2022-09-25T11:49:29.083Z,3.40
2022-09-25T11:52:26.039Z,3.38
2022-09-25T11:55:18.238Z,3.35
2022-09-25T11:57:57.276Z,3.35
2022-09-25T12:00:32.177Z,2.63
2022-09-25T12:03:13.474Z,3.20
2022-09-25T12:06:06.789Z,2.60
2022-09-25T12:08:47.911Z,3.10
2022-09-25T12:11:28.761Z,3.55
2022-09-25T12:14:03.625Z,3.20
2022-09-25T12:16:37.857Z,2.77
2022-09-25T12:19:16.712Z,2.60
2022-09-25T12:21:53.187Z,2.90
2022-09-25T12:24:43.522Z,3.00
2022-09-25T12:27:21.231Z,3.88
2022-09-25T12:30:08.706Z,3.33
2022-09-25T12:32:52.281Z,3.60
2022-09-25T12:35:32.765Z,3.40
2022-09-25T12:38:14.020Z,3.15
2022-09-25T12:40:49.692Z,3.17
2022-09-25T12:45:56.043Z,3.08
2022-09-25T12:48:29.132Z,2.73
2022-09-25T12:51:05.439Z,2.90
2022-09-25T12:53:43.267Z,2.90
2022-09-25T12:56:17.565Z,2.95
2022-09-25T12:59:02.949Z,3.10
2022-09-25T13:01:41.083Z,3.10
2022-09-25T13:04:49.706Z,3.25
2022-09-25T13:07:26.754Z,2.88
2022-09-25T13:10:00.938Z,2.63
2022-09-25T13:12:36.973Z,2.60
2022-09-25T13:15:09.781Z,3.25
2022-09-25T13:17:40.935Z,3.28
2022-09-25T13:20:44.421Z,3.05
2022-09-25T13:23:17.368Z,2.30
2022-09-25T13:25:59.889Z,2.53
2022-09-25T13:28:33.724Z,3.00
2022-09-25T13:31:09.351Z,2.78
2022-09-25T13:33:45.315Z,3.03
2022-09-25T13:36:36.402Z,3.20
2022-09-25T13:39:22.246Z,3.08
2022-09-25T13:41:59.720Z,2.60
2022-09-25T13:45:06.609Z,3.10
2022-09-25T13:48:04.483Z,3.03
2022-09-25T13:50:39.578Z,2.70
2022-09-25T13:53:35.087Z,2.75
2022-09-25T13:56:24.995Z,2.60
2022-09-25T13:59:24.616Z,2.70
2022-09-25T14:02:00.907Z,2.70
2022-09-25T14:04:35.128Z,2.30
2022-09-25T14:07:23.150Z,2.53
2022-09-25T14:09:57.634Z,2.83
2022-09-25T14:12:46.005Z,2.23
2022-09-25T14:15:33.259Z,2.20
2022-09-25T14:18:06.493Z,2.50
2022-09-25T14:20:41.439Z,3.20
2022-09-25T14:23:18.007Z,2.80
2022-09-25T14:25:51.567Z,2.70
2022-09-25T14:28:28.697Z,2.50
2022-09-25T14:31:10.268Z,2.75
2022-09-25T14:34:04.085Z,2.85
2022-09-25T14:36:41.486Z,2.45
2022-09-25T14:39:32.257Z,2.95
2022-09-25T14:42:26.344Z,2.75
2022-09-25T14:45:22.195Z,2.65
2022-09-25T14:47:59.904Z,3.05
2022-09-25T14:50:33.432Z,3.10
2022-09-25T14:53:08.525Z,3.00
2022-09-25T14:55:41.001Z,2.83
2022-09-25T14:58:16.201Z,2.93
2022-09-25T15:00:48.214Z,2.80
2022-09-25T15:03:24.115Z,2.78
2022-09-25T15:05:56.751Z,2.30
2022-09-25T15:08:36.118Z,2.92
2022-09-25T15:11:13.775Z,2.30
2022-09-25T15:13:44.810Z,2.60
2022-09-25T15:16:30.254Z,2.60
2022-09-25T15:19:08.438Z,2.30
2022-09-25T15:21:40.275Z,2.80
2022-09-25T15:24:15.813Z,2.30
2022-09-25T15:26:54.167Z,2.50
2022-09-25T15:29:27.110Z,2.80
2022-09-25T15:31:59.690Z,2.22
2022-09-25T15:34:33.756Z,2.60
2022-09-25T15:37:12.072Z,2.70
2022-09-25T15:39:46.989Z,2.90
2022-09-25T15:42:19.021Z,3.07
2022-09-25T15:44:54.361Z,2.83
2022-09-25T15:47:51.493Z,2.50
2022-09-25T15:50:28.559Z,2.97
2022-09-25T15:53:01.215Z,2.93
2022-09-25T15:55:33.362Z,2.47
2022-09-25T15:58:09.122Z,2.78
2022-09-25T16:03:37.823Z,3.20
2022-09-25T16:06:18.678Z,2.80
2022-09-25T16:08:50.005Z,2.90
2022-09-25T16:11:23.853Z,3.08
2022-09-25T16:13:55.445Z,3.25
2022-09-25T16:16:30.052Z,3.08
2022-09-25T16:19:02.422Z,3.25
2022-09-25T16:21:36.968Z,2.75
2022-09-25T16:24:11.370Z,3.20
2022-09-25T16:26:43.712Z,3.93
2022-09-25T16:29:22.227Z,3.30
2022-09-25T16:31:56.580Z,3.50
2022-09-25T16:34:31.207Z,3.50
2022-09-25T16:37:07.268Z,3.40
2022-09-25T16:39:39.738Z,3.78
2022-09-25T16:42:27.895Z,3.38
2022-09-25T16:45:05.963Z,3.08
2022-09-25T16:47:38.118Z,3.65
2022-09-25T16:50:10.939Z,3.90
2022-09-25T16:52:47.387Z,4.05
2022-09-25T16:55:24.629Z,4.13
2022-09-25T16:57:56.067Z,4.00
2022-09-25T17:00:30.450Z,4.13
2022-09-25T17:03:01.801Z,3.80
2022-09-25T17:05:33.721Z,3.85
2022-09-25T17:08:17.664Z,3.93
2022-09-25T17:10:49.581Z,3.95
2022-09-25T17:13:21.233Z,4.15
2022-09-25T17:15:55.847Z,3.60
2022-09-25T17:18:29.689Z,4.20
2022-09-25T17:21:01.867Z,3.95
2022-09-25T17:23:35.278Z,4.35
2022-09-25T17:26:09.662Z,4.60
2022-09-25T17:28:40.589Z,4.60
2022-09-25T17:31:13.573Z,5.38
2022-09-25T17:33:45.364Z,4.68
2022-09-25T17:36:16.928Z,5.75
2022-09-25T17:38:50.353Z,4.70
2022-09-25T17:41:22.573Z,4.57
2022-09-25T17:43:53.600Z,4.97
2022-09-25T17:46:23.954Z,5.80
2022-09-25T17:48:57.758Z,8.10
2022-09-25T17:51:29.876Z,8.25
2022-09-25T17:54:06.847Z,6.00
2022-09-25T17:56:39.450Z,6.65
2022-09-25T17:59:12.448Z,6.55
2022-09-25T18:01:44.106Z,7.88
2022-09-25T18:04:23.364Z,8.60
2022-09-25T18:06:55.414Z,8.20
2022-09-25T18:09:29.387Z,8.43
2022-09-25T18:12:00.719Z,7.95
2022-09-25T18:14:35.425Z,8.30
2022-09-25T18:17:06.761Z,8.05
2022-09-25T18:19:50.131Z,9.57
2022-09-25T18:22:25.830Z,10.00
2022-09-25T18:25:02.264Z,11.13
2022-09-25T18:27:35.808Z,9.63
2022-09-25T18:30:08.797Z,10.52
2022-09-25T18:32:41.360Z,10.98
2022-09-25T18:35:14.453Z,11.10
2022-09-25T18:37:46.148Z,10.82
2022-09-25T18:40:21.720Z,13.00
2022-09-25T18:42:54.493Z,16.02
2022-09-25T18:45:26.301Z,15.18
2022-09-25T18:48:01.022Z,15.95
2022-09-25T18:50:35.511Z,22.98
2022-09-25T18:53:08.939Z,23.00
2022-09-25T18:55:45.936Z,25.08
2022-09-25T18:58:20.286Z,18.33
2022-09-25T19:00:52.885Z,20.60
2022-09-25T19:03:27.096Z,16.63
2022-09-25T19:06:01.847Z,18.97
2022-09-25T19:08:39.302Z,20.33
2022-09-25T19:11:11.747Z,19.57
2022-09-25T19:13:54.492Z,18.80
2022-09-25T19:16:27.894Z,18.10
2022-09-25T19:19:01.400Z,19.05
2022-09-25T19:21:34.138Z,18.05
2022-09-25T19:24:09.348Z,19.50
2022-09-25T19:26:46.693Z,20.40
2022-09-25T19:29:20.192Z,18.25
2022-09-25T19:31:57.417Z,17.27
2022-09-25T19:34:28.968Z,18.25
2022-09-25T19:37:02.784Z,20.00
2022-09-25T19:39:56.994Z,19.33
2022-09-25T19:42:33.946Z,21.63
2022-09-25T19:45:08.818Z,20.67
2022-09-25T19:47:46.098Z,20.13
2022-09-25T19:50:21.577Z,17.73
2022-09-25T19:52:52.730Z,19.40
2022-09-25T19:55:25.109Z,17.58
2022-09-25T19:57:58.715Z,21.67
2022-09-25T20:00:31.738Z,22.30
2022-09-25T20:03:07.957Z,20.98
2022-09-25T20:05:42.247Z,20.52
2022-09-25T20:08:16.873Z,20.23
2022-09-25T20:10:50.721Z,20.60
2022-09-25T20:13:22.825Z,20.45
2022-09-25T20:15:55.179Z,20.60
2022-09-25T20:18:32.888Z,19.83
2022-09-25T20:21:05.898Z,16.48
2022-09-25T20:23:38.323Z,18.17
2022-09-25T20:26:11.504Z,17.90
2022-09-25T20:28:46.083Z,18.92
2022-09-25T20:31:21.642Z,18.70
2022-09-25T20:33:56.695Z,20.13
2022-09-25T20:36:29.224Z,18.90
2022-09-25T20:39:04.004Z,15.43
2022-09-25T20:41:39.316Z,18.38
2022-09-25T20:44:11.940Z,22.80
2022-09-25T20:46:44.391Z,25.02
2022-09-25T20:49:20.473Z,28.23
2022-09-25T20:54:25.239Z,22.60
2022-09-25T20:56:58.773Z,24.47
2022-09-25T20:59:33.566Z,24.48
2022-09-25T21:02:08.802Z,22.58
2022-09-25T21:04:45.327Z,23.20
2022-09-25T21:07:17.483Z,24.97
2022-09-25T21:09:49.173Z,34.25
2022-09-25T21:12:21.592Z,29.80
2022-09-25T21:14:54.611Z,26.30
2022-09-25T21:17:29.369Z,21.23
2022-09-25T21:20:11.931Z,18.00
2022-09-25T21:22:46.983Z,16.67
2022-09-25T21:25:21.445Z,20.40
2022-09-25T21:27:55.840Z,19.05
2022-09-25T21:30:32.201Z,21.48
2022-09-25T21:33:05.000Z,20.10
2022-09-25T21:35:40.143Z,21.15
2022-09-25T21:38:13.346Z,16.80
2022-09-25T21:40:45.312Z,21.30
2022-09-25T21:43:17.420Z,17.80
2022-09-25T21:45:55.038Z,19.90
2022-09-25T21:48:29.609Z,21.75
2022-09-25T21:51:06.255Z,22.97
2022-09-25T21:53:39.513Z,23.85
2022-09-25T21:56:13.534Z,18.50
2022-09-25T21:58:46.032Z,19.05
2022-09-25T22:01:19.388Z,22.40
2022-09-25T22:03:54.100Z,18.13
2022-09-25T22:06:33.784Z,20.02
2022-09-25T22:09:06.480Z,17.45
2022-09-25T22:11:38.313Z,16.55
2022-09-25T22:14:15.481Z,16.10
2022-09-25T22:16:50.080Z,15.60
2022-09-25T22:19:22.877Z,15.98
2022-09-25T22:21:59.097Z,17.55
2022-09-25T22:24:32.679Z,18.35
2022-09-25T22:27:04.979Z,19.40
2022-09-25T22:29:38.841Z,16.30
2022-09-25T22:32:10.992Z,20.58
2022-09-25T22:34:43.085Z,22.15
2022-09-25T22:37:18.665Z,19.67
2022-09-25T22:40:02.331Z,17.25
2022-09-25T22:42:34.042Z,24.93
2022-09-25T22:45:06.258Z,26.55
2022-09-25T22:47:38.172Z,24.40
2022-09-25T22:50:11.308Z,25.57
2022-09-25T22:52:45.921Z,25.95
2022-09-25T22:55:20.383Z,28.60
2022-09-25T22:57:52.252Z,33.05
2022-09-25T23:00:24.206Z,24.90
2022-09-25T23:02:56.995Z,24.80
2022-09-25T23:05:28.815Z,28.23
2022-09-25T23:08:06.193Z,24.13
2022-09-25T23:10:55.489Z,18.35
2022-09-25T23:13:32.123Z,22.00
2022-09-25T23:16:07.570Z,21.40
2022-09-25T23:18:40.330Z,19.60
2022-09-25T23:21:12.883Z,19.20
2022-09-25T23:23:46.839Z,23.00
2022-09-25T23:26:18.921Z,20.13
2022-09-25T23:28:53.200Z,22.17
2022-09-25T23:31:25.307Z,17.95
2022-09-25T23:33:57.727Z,23.50
2022-09-25T23:36:30.216Z,17.50
2022-09-25T23:39:06.278Z,16.65
2022-09-25T23:41:40.170Z,17.73
2022-09-25T23:44:14.233Z,15.60
2022-09-25T23:46:46.061Z,19.33
2022-09-25T23:49:17.838Z,19.85
2022-09-25T23:51:50.001Z,17.70
2022-09-25T23:54:26.763Z,17.17
2022-09-25T23:56:58.884Z,20.45
2022-09-25T23:59:31.031Z,20.10
